Time;durP1;ratioP1;P1;durP2;ratioP2;P2;SDS_P1;SDS_P2;PMS_P1;PMS_P2;Temp;Humidity;BMP_temperature;BMP_pressure;BME280_temperature;BME280_humidity;BME280_pressure;Samples;Min_cycle;Max_cycle;Signal;HPM_P1;HPM_P2
2022/03/07 00:02:18;;;;;;;16.17;8.68;;;;;;;18.66;97.23;98882.28;5005623;28;20172;-72
2022/03/07 00:05:00;;;;;;;14.90;7.82;;;;;;;18.34;97.00;98884.13;4994584;28;20052;-73
2022/03/07 00:07:49;;;;;;;16.50;7.60;;;;;;;18.27;95.66;98894.09;5008522;28;20041;-72
2022/03/07 00:10:31;;;;;;;14.13;7.20;;;;;;;18.09;97.09;98896.91;4968517;28;20054;-72
2022/03/07 00:13:21;;;;;;;17.98;7.78;;;;;;;18.51;93.71;98904.03;4988341;28;20058;-72
2022/03/07 00:16:03;;;;;;;17.95;9.32;;;;;;;18.08;97.16;98903.88;4968892;28;20051;-73
2022/03/07 00:18:52;;;;;;;18.58;10.77;;;;;;;18.11;96.26;98921.97;4981512;28;20168;-72
2022/03/07 00:21:36;;;;;;;25.00;12.93;;;;;;;17.83;94.16;98914.00;5006065;28;20057;-73
2022/03/07 00:24:30;;;;;;;28.58;14.80;;;;;;;17.80;97.46;98917.63;4986533;28;20047;-72
2022/03/07 00:27:06;;;;;;;28.73;14.00;;;;;;;18.30;100.00;98921.75;5006789;28;20738;-72
2022/03/07 00:29:59;;;;;;;26.73;13.90;;;;;;;18.19;97.05;98916.31;4992624;28;20116;-73
2022/03/07 00:32:35;;;;;;;32.17;16.05;;;;;;;18.05;96.38;98911.03;4987393;28;20061;-72
2022/03/07 00:35:25;;;;;;;28.42;14.95;;;;;;;18.32;96.58;98925.97;5005092;28;20095;-71
2022/03/07 00:38:08;;;;;;;;;;;;;;;18.40;96.22;98935.09;5006711;28;20091;-72
2022/03/07 00:41:03;;;;;;;28.58;14.45;;;;;;;17.67;94.65;98932.25;4997322;28;19936;-72
2022/03/07 00:43:41;;;;;;;25.23;14.25;;;;;;;17.70;99.18;98928.66;5005457;28;20041;-72
2022/03/07 00:46:36;;;;;;;26.25;13.05;;;;;;;18.00;95.50;98944.34;4991979;28;20042;-73
2022/03/07 00:49:12;;;;;;;24.88;13.38;;;;;;;17.85;97.22;98939.06;5005870;28;20419;-73
2022/03/07 00:52:07;;;;;;;27.17;13.60;;;;;;;17.98;100.00;98937.47;4991934;28;20057;-73
2022/03/07 00:54:43;;;;;;;31.02;13.93;;;;;;;18.29;97.17;98952.22;5006312;28;20069;-71
2022/03/07 00:57:30;;;;;;;25.42;13.23;;;;;;;18.28;97.56;98965.31;5004447;28;20045;-73
2022/03/07 01:00:13;;;;;;;32.33;15.10;;;;;;;17.83;92.30;98964.38;4989466;28;20057;-72
2022/03/07 01:03:13;;;;;;;26.02;14.52;;;;;;;17.82;96.16;98951.44;5006280;28;20053;-72
2022/03/07 01:05:49;;;;;;;28.67;12.70;;;;;;;17.68;91.26;98946.97;5017913;28;20099;-72
2022/03/07 01:08:39;;;;;;;25.63;12.07;;;;;;;17.70;97.67;98947.75;4993081;28;20494;-74
2022/03/07 01:11:29;;;;;;;25.33;9.90;;;;;;;17.42;91.72;98952.72;5006235;28;20057;-72
2022/03/07 01:14:25;;;;;;;17.88;9.98;;;;;;;17.73;96.98;98957.97;4988613;28;20054;-73
2022/03/07 01:17:01;;;;;;;18.05;8.45;;;;;;;17.43;94.54;98943.97;4989901;28;20042;-72
2022/03/07 01:19:49;;;;;;;14.50;8.45;;;;;;;17.35;97.41;98935.72;4992099;28;20506;-70
2022/03/07 01:22:31;;;;;;;16.75;8.35;;;;;;;17.42;97.98;98931.88;5001804;28;20078;-72
2022/03/07 01:25:26;;;;;;;18.92;9.25;;;;;;;17.28;97.03;98934.38;5005048;28;20065;-73
2022/03/07 01:28:02;;;;;;;17.13;10.07;;;;;;;17.67;100.00;98937.47;5001562;28;20057;-73
2022/03/07 01:30:57;;;;;;;17.63;10.10;;;;;;;17.83;100.00;98938.31;4991714;28;20137;-73
2022/03/07 01:33:33;;;;;;;21.67;10.60;;;;;;;17.71;94.05;98945.97;5002547;28;20054;-71
2022/03/07 01:36:28;;;;;;;24.50;10.07;;;;;;;18.05;98.97;98929.28;5005272;28;20050;-73
2022/03/07 01:39:04;;;;;;;18.75;10.07;;;;;;;18.45;98.94;98940.88;4986726;28;20061;-73
2022/03/07 01:42:00;;;;;;;22.73;9.82;;;;;;;17.96;95.57;98949.72;4991482;28;20133;-73
2022/03/07 01:44:36;;;;;;;16.63;9.95;;;;;;;18.44;99.14;98958.31;5003880;28;20107;-71
2022/03/07 01:47:33;;;;;;;16.02;9.20;;;;;;;18.41;98.73;98961.13;4999867;28;20138;-73
2022/03/07 01:50:11;;;;;;;17.52;9.90;;;;;;;18.39;94.46;98970.78;5007239;28;20077;-72
2022/03/07 01:53:06;;;;;;;16.50;8.88;;;;;;;18.39;91.70;98978.63;4987963;28;20149;-71
2022/03/07 01:55:43;;;;;;;16.05;8.55;;;;;;;17.51;92.23;98973.91;4994180;28;20494;-72
2022/03/07 01:58:40;;;;;;;15.27;7.50;;;;;;;17.97;96.11;98971.44;4983513;28;20053;-72
2022/03/07 02:01:15;;;;;;;16.17;8.52;;;;;;;17.95;98.56;98973.31;5005627;28;20073;-72
2022/03/07 02:04:11;;;;;;;19.48;9.00;;;;;;;18.16;96.34;98981.69;4974124;28;20688;-72
2022/03/07 02:06:48;;;;;;;14.00;7.50;;;;;;;17.94;93.09;98992.47;5010397;28;20394;-73
2022/03/07 02:09:38;;;;;;;16.17;7.72;;;;;;;18.15;94.01;99003.47;4997034;28;20042;-74
2022/03/07 02:12:21;;;;;;;;;;;;;;;17.70;93.57;99007.69;5008274;28;20081;-74
2022/03/07 02:15:17;;;;;;;17.65;6.43;;;;;;;17.62;100.00;99001.19;5002861;28;19940;-73
2022/03/07 02:17:54;;;;;;;14.88;6.38;;;;;;;17.28;95.74;98999.47;5006236;28;20042;-73
2022/03/07 02:20:50;;;;;;;13.35;6.75;;;;;;;17.59;100.00;99005.59;5002790;28;20072;-73
2022/03/07 02:23:40;;;;;;;17.05;6.90;;;;;;;17.57;92.72;99007.44;4987166;28;20639;-72
2022/03/07 02:26:36;;;;;;;15.93;8.35;;;;;;;18.62;97.35;99017.31;5004444;28;20131;-72
2022/03/07 02:29:12;;;;;;;13.30;7.53;;;;;;;19.35;91.86;99019.97;4988785;28;20054;-73
2022/03/07 02:32:11;;;;;;;16.40;7.55;;;;;;;19.72;87.97;99026.44;4988507;28;20061;-74
2022/03/07 02:34:48;;;;;;;15.80;8.93;;;;;;;19.72;85.58;99022.06;4987046;28;20046;-72
2022/03/07 02:37:37;;;;;;;18.10;9.32;;;;;;;19.67;86.33;99029.34;5006455;28;20139;-72
2022/03/07 02:40:20;;;;;;;21.73;11.95;;;;;;;19.38;80.30;99041.56;4989318;28;20041;-72
2022/03/07 02:43:28;;;;;;;23.33;13.20;;;;;;;20.15;80.38;99033.28;5001527;28;20822;-73
2022/03/07 02:46:11;;;;;;;29.20;15.90;;;;;;;20.07;77.33;99040.78;4986572;28;20046;-74
2022/03/07 02:49:06;;;;;;;29.42;14.32;;;;;;;19.98;76.57;99046.59;4972740;28;20049;-73
2022/03/07 02:51:42;;;;;;;21.70;11.48;;;;;;;20.08;76.30;99050.31;5007855;28;20414;-73
2022/03/07 02:54:38;;;;;;;20.67;10.35;;;;;;;20.52;74.68;99070.22;5003161;28;20116;-75
2022/03/07 02:57:13;;;;;;;23.90;10.13;;;;;;;20.80;72.20;99070.13;5004696;28;20410;-74
2022/03/07 03:00:15;;;;;;;23.73;8.90;;;;;;;20.73;74.42;99068.84;5001478;28;20053;-72
2022/03/07 03:02:51;;;;;;;21.92;10.55;;;;;;;20.88;71.34;99072.25;5002220;28;20068;-72
2022/03/07 03:05:46;;;;;;;19.17;10.60;;;;;;;21.30;70.70;99079.06;4987530;28;20050;-73
2022/03/07 03:08:23;;;;;;;27.38;10.73;;;;;;;21.29;69.70;99072.13;4992298;28;20856;-74
2022/03/07 03:11:19;;;;;;;27.55;9.35;;;;;;;21.11;69.37;99068.09;4971737;28;20041;-72
2022/03/07 03:13:57;;;;;;;27.10;8.18;;;;;;;21.47;71.65;99072.69;5002859;28;20081;-72
2022/03/07 03:16:51;;;;;;;28.80;10.65;;;;;;;21.28;69.78;99078.31;5001958;28;20093;-73
2022/03/07 03:19:27;;;;;;;24.70;12.55;;;;;;;21.72;70.92;99081.34;5003565;28;20054;-73
2022/03/07 03:22:24;;;;;;;23.80;12.02;;;;;;;22.25;69.34;99091.72;5005100;28;20152;-71
2022/03/07 03:25:15;;;;;;;33.67;14.60;;;;;;;22.19;66.27;99105.28;5003154;28;20046;-72
2022/03/07 03:28:02;;;;;;;37.25;16.10;;;;;;;22.48;64.32;99102.25;5003095;28;20053;-73
2022/03/07 03:30:44;;;;;;;26.30;12.43;;;;;;;22.28;66.39;99100.19;5000165;28;20049;-72
2022/03/07 03:33:35;;;;;;;26.80;11.55;;;;;;;22.36;66.08;99108.34;4980283;28;20554;-72
2022/03/07 03:36:17;;;;;;;27.80;12.27;;;;;;;22.82;65.55;99112.97;4994894;28;20049;-72
2022/03/07 03:39:05;;;;;;;23.05;7.93;;;;;;;23.08;63.12;99103.13;5004683;28;20053;-73
2022/03/07 03:41:47;;;;;;;18.25;9.63;;;;;;;23.62;64.77;99121.84;5004238;28;20041;-72
2022/03/07 03:44:37;;;;;;;14.88;7.45;;;;;;;24.04;64.09;99113.25;5006279;28;20049;-73
2022/03/07 03:47:20;;;;;;;18.80;9.90;;;;;;;24.64;59.53;99127.81;5006985;28;20046;-73
2022/03/07 03:50:10;;;;;;;24.90;9.15;;;;;;;24.01;60.29;99129.31;5007914;28;20055;-71
2022/03/07 03:52:52;;;;;;;19.45;10.68;;;;;;;23.89;61.15;99140.78;5008526;28;20049;-71
2022/03/07 03:55:41;;;;;;;21.48;9.98;;;;;;;24.12;59.24;99146.03;5014691;28;20049;-72
2022/03/07 03:58:23;;;;;;;19.42;10.23;;;;;;;24.50;57.79;99153.59;5006192;28;20050;-74
2022/03/07 04:01:13;;;;;;;22.83;10.32;;;;;;;24.39;58.40;99159.72;5005713;28;20073;-73
2022/03/07 04:03:55;;;;;;;26.73;11.07;;;;;;;23.82;60.02;99155.34;5010852;28;20045;-74
2022/03/07 04:06:48;;;;;;;23.50;10.10;;;;;;;24.35;60.58;99156.47;4992378;28;20062;-74
2022/03/07 04:09:30;;;;;;;16.55;9.13;;;;;;;24.49;60.50;99163.31;5003567;28;20046;-73
2022/03/07 04:12:19;;;;;;;24.70;11.80;;;;;;;24.57;60.63;99163.53;4992892;28;20058;-73
2022/03/07 04:15:03;;;;;;;14.93;8.80;;;;;;;24.58;58.03;99170.47;5006579;28;21170;-72
2022/03/07 04:17:54;;;;;;;17.60;7.45;;;;;;;25.16;56.67;99177.16;5008208;28;20470;-73
2022/03/07 04:20:38;;;;;;;16.85;7.35;;;;;;;25.01;54.76;99173.16;4988428;28;20041;-73
2022/03/07 04:23:33;;;;;;;19.95;9.25;;;;;;;24.51;55.35;99178.97;4999904;28;20054;-74
2022/03/07 04:26:09;;;;;;;14.27;8.07;;;;;;;25.07;54.46;99182.34;5004405;28;20050;-73
2022/03/07 04:29:07;;;;;;;;;;;;;;;25.24;55.33;99183.59;5006098;28;20773;-73
2022/03/07 04:31:44;;;;;;;15.35;7.60;;;;;;;25.50;52.84;99180.50;5010456;28;20349;-74
2022/03/07 04:34:33;;;;;;;;;;;;;;;25.72;52.30;99194.56;4990938;28;20096;-75
2022/03/07 04:37:14;;;;;;;15.77;6.72;;;;;;;25.30;52.49;99194.47;5000191;28;19987;-74
2022/03/07 04:40:12;;;;;;;14.18;5.75;;;;;;;25.40;53.67;99194.56;4999420;28;20042;-74
2022/03/07 04:42:55;;;;;;;14.88;5.63;;;;;;;25.29;54.17;99200.75;4991239;28;20056;-74
2022/03/07 04:45:58;;;;;;;21.83;7.55;;;;;;;25.66;56.45;99197.72;4989583;28;20127;-75
2022/03/07 04:48:35;;;;;;;13.95;6.05;;;;;;;24.79;53.33;99200.38;5006411;28;20045;-76
2022/03/07 04:51:24;;;;;;;11.98;5.00;;;;;;;24.91;56.15;99198.56;5005567;28;20052;-73
2022/03/07 04:54:06;;;;;;;13.75;5.65;;;;;;;25.21;54.81;99197.06;5003595;28;20570;-73
2022/03/07 04:56:55;;;;;;;14.30;6.65;;;;;;;25.31;56.86;99201.44;5004520;28;20123;-75
2022/03/07 04:59:37;;;;;;;21.17;5.90;;;;;;;25.30;55.47;99198.97;5006107;28;20466;-74
2022/03/07 05:02:37;;;;;;;17.17;5.90;;;;;;;25.28;55.75;99193.81;4999013;28;20034;-74
2022/03/07 05:05:13;;;;;;;17.67;5.95;;;;;;;25.62;54.57;99199.75;5004322;28;20064;-75
2022/03/07 05:08:02;;;;;;;26.05;6.93;;;;;;;25.09;54.17;99196.25;4990364;28;20049;-70
2022/03/07 05:10:52;;;;;;;14.27;7.25;;;;;;;25.11;54.85;99202.25;4998779;28;20037;-67
2022/03/07 05:13:34;;;;;;;22.25;7.15;;;;;;;25.53;52.78;99205.81;5002005;28;20042;-72
2022/03/07 05:16:23;;;;;;;26.02;7.07;;;;;;;25.19;55.38;99189.28;5001040;28;20122;-68
2022/03/07 05:19:05;;;;;;;20.35;7.93;;;;;;;25.46;55.70;99194.91;4998346;28;20062;-67
2022/03/07 05:21:54;;;;;;;20.25;6.97;;;;;;;25.49;55.22;99191.19;5003758;28;20065;-68
2022/03/07 05:24:36;;;;;;;19.85;7.97;;;;;;;25.35;56.98;99189.69;4999032;28;20551;-66
2022/03/07 05:27:24;;;;;;;22.60;6.63;;;;;;;25.45;55.63;99203.81;5005529;28;20038;-68
2022/03/07 05:30:08;;;;;;;21.25;7.20;;;;;;;25.28;54.11;99196.44;4987029;28;20073;-68
2022/03/07 05:32:59;;;;;;;23.05;6.80;;;;;;;25.21;55.38;99194.44;4986154;28;20046;-68
2022/03/07 05:35:41;;;;;;;25.40;7.15;;;;;;;25.69;55.08;99200.13;5003488;28;20056;-67
2022/03/07 05:38:30;;;;;;;13.27;5.95;;;;;;;25.65;55.16;99198.69;5006277;28;20117;-68
2022/03/07 05:41:12;;;;;;;14.60;6.00;;;;;;;25.79;54.59;99203.63;4998726;28;20045;-65
2022/03/07 05:44:01;;;;;;;24.10;5.00;;;;;;;25.86;54.82;99200.34;5002606;28;20394;-66
2022/03/07 05:46:49;;;;;;;13.55;3.90;;;;;;;25.92;52.75;99196.38;5001884;28;20050;-66
2022/03/07 05:49:38;;;;;;;18.17;4.75;;;;;;;25.85;54.14;99200.50;5004122;28;20077;-65
2022/03/07 05:52:20;;;;;;;20.17;4.78;;;;;;;25.37;53.88;99206.25;5003068;28;20100;-65
2022/03/07 05:55:13;;;;;;;12.98;3.90;;;;;;;25.58;54.57;99200.13;5001620;28;20072;-64
2022/03/07 05:58:00;;;;;;;13.90;3.70;;;;;;;25.36;51.64;99201.91;5002799;28;20073;-67
2022/03/07 06:00:59;;;;;;;25.38;5.97;;;;;;;25.67;55.02;99194.13;4973652;28;20042;-65
2022/03/07 06:03:42;;;;;;;22.42;5.05;;;;;;;25.88;54.33;99192.28;5004401;28;20065;-65
2022/03/07 06:06:30;;;;;;;20.25;5.03;;;;;;;26.11;54.25;99196.44;5000395;28;20053;-65
2022/03/07 06:09:12;;;;;;;11.20;5.13;;;;;;;25.69;54.62;99194.84;5004142;28;20046;-66
2022/03/07 06:12:00;;;;;;;10.45;4.30;;;;;;;25.28;55.70;99191.16;5003047;28;20153;-66
2022/03/07 06:14:42;;;;;;;13.70;5.15;;;;;;;25.87;53.17;99201.19;4989861;28;20132;-64
2022/03/07 06:17:31;;;;;;;21.17;6.35;;;;;;;25.78;53.25;99197.50;5001945;28;20110;-65
2022/03/07 06:20:13;;;;;;;18.92;5.43;;;;;;;25.60;54.85;99187.69;5004001;28;20056;-65
2022/03/07 06:23:09;;;;;;;15.60;5.90;;;;;;;25.73;55.89;99175.13;5003445;28;20073;-63
2022/03/07 06:26:05;;;;;;;21.98;5.32;;;;;;;25.98;56.54;99182.63;5005658;28;20042;-67
2022/03/07 06:28:41;;;;;;;11.95;5.18;;;;;;;25.88;55.82;99176.47;5003363;28;20050;-66
2022/03/07 06:31:35;;;;;;;19.92;5.07;;;;;;;25.84;56.41;99172.41;5001671;28;20151;-64
2022/03/07 06:34:12;;;;;;;16.25;5.70;;;;;;;26.13;55.14;99180.47;5002204;28;20077;-64
2022/03/07 06:37:08;;;;;;;10.63;5.05;;;;;;;26.01;54.56;99166.53;5004999;28;20145;-64
2022/03/07 06:39:46;;;;;;;14.32;4.32;;;;;;;25.94;54.14;99168.03;5002725;28;20195;-64
2022/03/07 06:42:34;;;;;;;20.85;5.50;;;;;;;25.99;56.33;99149.97;5002873;28;20056;-63
2022/03/07 06:45:17;;;;;;;13.90;5.05;;;;;;;26.12;55.76;99155.03;5001007;28;20068;-64
2022/03/07 06:48:13;;;;;;;15.05;5.22;;;;;;;25.66;53.82;99144.94;5003952;28;20050;-64
2022/03/07 06:50:49;;;;;;;19.75;6.13;;;;;;;25.77;56.57;99139.59;5003005;28;20049;-63
2022/03/07 06:53:38;;;;;;;26.00;7.93;;;;;;;25.55;54.05;99129.97;5001939;28;20053;-65
2022/03/07 06:56:27;;;;;;;13.00;5.10;;;;;;;25.57;55.29;99121.91;5000690;28;20056;-66
2022/03/07 06:59:10;;;;;;;21.17;6.32;;;;;;;25.76;56.65;99119.44;5001283;28;20037;-68
2022/03/07 07:02:01;;;;;;;19.08;6.15;;;;;;;25.65;58.02;99112.41;5003690;28;20104;-70
2022/03/07 07:04:45;;;;;;;19.55;6.80;;;;;;;25.12;55.88;99106.34;4990871;28;20132;-68
2022/03/07 07:07:34;;;;;;;16.67;6.57;;;;;;;25.34;56.77;99100.94;5004923;28;20353;-65
2022/03/07 07:10:21;;;;;;;23.48;7.32;;;;;;;25.09;54.09;99091.59;5000071;28;20072;-68
2022/03/07 07:13:14;;;;;;;21.92;6.22;;;;;;;25.05;55.17;99094.63;5000448;28;20073;-69
2022/03/07 07:16:00;;;;;;;21.17;8.10;;;;;;;25.24;58.77;99081.56;5003040;28;20046;-70
2022/03/07 07:18:50;;;;;;;17.50;6.95;;;;;;;25.28;58.85;99084.81;4998677;28;20050;-71
2022/03/07 07:21:31;;;;;;;15.70;5.50;;;;;;;25.12;57.04;99077.34;5005270;28;20513;-67
2022/03/07 07:24:26;;;;;;;16.48;6.43;;;;;;;25.23;58.71;99071.16;5004088;28;20465;-67
2022/03/07 07:27:16;;;;;;;12.35;5.20;;;;;;;25.34;57.07;99071.09;5004894;28;21420;-67
2022/03/07 07:30:09;;;;;;;9.75;3.72;;;;;;;24.84;53.03;99067.38;5003036;28;20045;-66
2022/03/07 07:32:51;;;;;;;9.63;4.20;;;;;;;25.37;53.08;99065.56;5003218;28;20049;-67
2022/03/07 07:35:39;;;;;;;15.77;4.35;;;;;;;25.59;54.29;99070.72;5006067;28;20057;-67
2022/03/07 07:38:21;;;;;;;15.05;5.82;;;;;;;25.66;54.91;99065.75;5003719;28;20060;-68
2022/03/07 07:41:11;;;;;;;19.02;5.18;;;;;;;25.53;53.29;99058.88;5005927;28;20049;-68
2022/03/07 07:43:52;;;;;;;20.38;6.22;;;;;;;25.50;52.83;99050.34;5005836;28;20052;-71
2022/03/07 07:46:42;;;;;;;18.88;7.30;;;;;;;25.67;52.95;99033.13;5007505;28;20830;-72
2022/03/07 07:49:24;;;;;;;27.23;5.93;;;;;;;25.75;53.11;99036.75;5001938;28;20729;-70
2022/03/07 07:52:13;;;;;;;18.15;4.57;;;;;;;25.63;52.40;99036.97;5001277;28;20065;-69
2022/03/07 07:54:55;;;;;;;13.35;5.45;;;;;;;25.61;53.28;99033.66;5005405;28;20042;-68
2022/03/07 07:57:44;;;;;;;18.90;6.32;;;;;;;25.43;53.20;99031.59;5005159;28;20049;-69
2022/03/07 08:00:27;;;;;;;16.98;5.25;;;;;;;25.42;53.61;99034.34;5005460;28;20552;-68
2022/03/07 08:03:15;;;;;;;13.38;3.83;;;;;;;25.41;53.93;99032.66;5003386;28;20144;-68
2022/03/07 08:05:58;;;;;;;14.90;3.80;;;;;;;25.20;53.64;99024.78;5004709;28;20045;-67
2022/03/07 08:08:46;;;;;;;10.63;4.55;;;;;;;25.07;55.26;99008.31;5004463;28;20639;-68
2022/03/07 08:11:29;;;;;;;15.07;5.50;;;;;;;25.06;56.17;99011.94;5004861;28;20053;-68
2022/03/07 08:14:17;;;;;;;8.18;2.70;;;;;;;24.82;54.98;98998.97;5002019;28;20054;-68
2022/03/07 08:17:13;;;;;;;15.57;3.90;;;;;;;25.01;55.03;98999.13;4995573;28;20049;-67
2022/03/07 08:19:48;;;;;;;16.80;5.32;;;;;;;25.09;55.44;98999.31;5003507;28;20049;-69
2022/03/07 08:22:42;;;;;;;19.20;4.78;;;;;;;24.95;53.67;98994.38;4993037;28;20149;-67
2022/03/07 08:25:32;;;;;;;13.50;4.75;;;;;;;25.06;52.89;99004.03;4985129;28;20476;-68
2022/03/07 08:28:21;;;;;;;15.90;5.32;;;;;;;25.25;54.90;99001.50;4980564;28;20407;-68
2022/03/07 08:31:03;;;;;;;14.60;7.15;;;;;;;25.20;56.03;98994.94;4974872;28;20054;-69
2022/03/07 08:33:52;;;;;;;22.30;8.38;;;;;;;25.23;56.25;98999.94;4981497;28;20053;-67
2022/03/07 08:36:34;;;;;;;22.85;6.68;;;;;;;25.25;56.53;98990.94;4983141;28;20062;-67
2022/03/07 08:39:23;;;;;;;27.23;8.52;;;;;;;25.39;57.07;98984.47;4983585;28;20117;-68
2022/03/07 08:42:06;;;;;;;18.83;7.07;;;;;;;25.37;56.71;98973.25;4983370;28;20050;-68
2022/03/07 08:44:55;;;;;;;23.67;10.48;;;;;;;25.19;56.71;98970.38;4973669;28;20042;-68
2022/03/07 08:47:44;;;;;;;24.55;10.43;;;;;;;25.28;57.78;98961.69;4987239;28;20046;-69
2022/03/07 08:50:26;;;;;;;19.25;9.85;;;;;;;25.28;57.06;98964.31;4985423;28;20058;-68
2022/03/07 08:53:18;;;;;;;19.23;7.38;;;;;;;25.42;54.50;98963.13;4982718;28;20620;-68
2022/03/07 08:56:00;;;;;;;18.27;10.50;;;;;;;25.47;57.08;98958.25;4977498;28;20046;-68
2022/03/07 08:59:07;;;;;;;20.25;11.35;;;;;;;25.27;58.62;98952.09;4984803;28;20050;-68
2022/03/07 09:01:57;;;;;;;24.33;8.23;;;;;;;25.34;56.79;98947.94;4984334;28;20065;-68
2022/03/07 09:04:40;;;;;;;17.92;8.57;;;;;;;25.23;57.35;98945.38;4988587;28;20042;-69
2022/03/07 09:07:29;;;;;;;22.80;6.28;;;;;;;25.21;57.53;98942.06;4987225;28;20054;-68
2022/03/07 09:10:18;;;;;;;13.80;7.15;;;;;;;25.11;58.90;98942.03;4985345;28;20424;-68
2022/03/07 09:13:01;;;;;;;16.80;7.65;;;;;;;24.95;60.80;98932.91;4964936;28;20050;-67
2022/03/07 09:15:52;;;;;;;18.92;9.13;;;;;;;24.85;61.71;98935.44;4974507;28;20065;-69
2022/03/07 09:18:41;;;;;;;14.00;6.28;;;;;;;24.76;60.77;98937.06;4986268;28;20046;-68
2022/03/07 09:21:30;;;;;;;19.65;6.20;;;;;;;24.83;59.04;98941.81;4985143;28;20043;-68
2022/03/07 09:24:26;;;;;;;13.52;5.50;;;;;;;24.81;60.22;98938.47;4999758;28;20489;-69
2022/03/07 09:27:02;;;;;;;17.38;5.57;;;;;;;24.79;58.71;98938.59;5007233;28;20073;-68
2022/03/07 09:29:50;;;;;;;14.18;5.15;;;;;;;24.88;55.80;98939.63;5006347;28;20065;-67
2022/03/07 09:32:33;;;;;;;11.40;4.72;;;;;;;24.84;57.30;98936.41;5012928;28;20057;-67
2022/03/07 09:35:22;;;;;;;10.43;3.97;;;;;;;24.81;53.61;98925.31;5005693;28;20050;-67
2022/03/07 09:38:04;;;;;;;15.68;5.95;;;;;;;24.85;54.77;98924.06;5006829;28;20053;-68
2022/03/07 09:40:54;;;;;;;9.50;4.00;;;;;;;24.90;54.61;98920.09;5010644;28;20474;-67
2022/03/07 09:43:37;;;;;;;22.20;3.35;;;;;;;24.86;53.04;98920.47;5006899;28;20042;-66
2022/03/07 09:46:27;;;;;;;11.45;3.97;;;;;;;24.93;54.41;98916.38;5007694;28;20057;-67
2022/03/07 09:49:08;;;;;;;8.57;3.35;;;;;;;24.99;54.09;98916.69;5005735;28;20503;-67
2022/03/07 09:51:58;;;;;;;20.63;4.50;;;;;;;25.02;54.94;98907.69;5009151;28;20895;-67
2022/03/07 09:54:47;;;;;;;9.10;3.60;;;;;;;24.89;55.53;98909.69;5003683;28;20045;-67
2022/03/07 09:57:30;;;;;;;6.78;3.80;;;;;;;24.90;52.51;98906.91;5009426;28;20050;-67
2022/03/07 10:00:19;;;;;;;14.75;3.78;;;;;;;24.92;53.84;98906.78;5009092;28;20072;-67
2022/03/07 10:03:20;;;;;;;14.70;4.22;;;;;;;24.94;53.44;98903.06;5009046;28;20465;-67
2022/03/07 10:05:56;;;;;;;10.05;3.40;;;;;;;24.89;53.20;98910.50;5006984;28;20046;-68
2022/03/07 10:08:57;;;;;;;11.05;3.25;;;;;;;24.74;53.67;98904.72;5007192;28;20054;-67
2022/03/07 10:12:00;;;;;;;8.23;3.08;;;;;;;24.70;52.65;98905.13;5008161;28;20057;-67
2022/03/07 10:14:45;;;;;;;15.23;3.63;;;;;;;24.66;49.92;98895.81;5007738;28;20061;-66
2022/03/07 10:17:37;;;;;;;6.90;2.67;;;;;;;24.65;51.20;98892.34;5013997;28;20057;-66
2022/03/07 10:20:21;;;;;;;9.90;2.72;;;;;;;24.76;51.11;98880.88;5007646;28;20128;-67
2022/03/07 10:23:15;;;;;;;14.57;3.78;;;;;;;24.80;53.73;98884.94;4998156;28;20058;-67
2022/03/07 10:26:12;;;;;;;9.13;2.85;;;;;;;24.79;52.07;98891.16;5000018;28;20136;-68
2022/03/07 10:29:14;;;;;;;8.60;3.00;;;;;;;24.72;51.89;98887.38;5000633;28;20315;-67
2022/03/07 10:32:24;;;;;;;9.65;3.20;;;;;;;24.68;52.26;98897.34;4945809;28;20597;-68
2022/03/07 10:35:00;;;;;;;7.53;3.10;;;;;;;24.67;55.03;98893.03;4998039;28;20108;-67
2022/03/07 10:38:11;;;;;;;10.05;3.38;;;;;;;24.61;55.48;98896.19;4996459;28;20576;-68
2022/03/07 10:41:19;;;;;;;11.20;3.10;;;;;;;24.63;55.48;98886.34;4998791;28;20049;-67
2022/03/07 10:44:02;;;;;;;12.55;3.10;;;;;;;24.59;55.36;98884.09;4998367;28;20049;-68
2022/03/07 10:46:51;;;;;;;13.15;4.40;;;;;;;24.52;55.53;98889.06;4997901;28;20046;-66
2022/03/07 10:49:33;;;;;;;9.52;3.50;;;;;;;24.58;54.73;98888.56;4983195;28;20403;-66
2022/03/07 10:52:22;;;;;;;7.40;3.20;;;;;;;24.56;55.31;98879.09;5000743;28;20108;-66
2022/03/07 10:55:18;;;;;;;11.48;4.22;;;;;;;24.56;54.66;98879.09;5002142;28;20104;-64
2022/03/07 10:58:09;;;;;;;8.77;3.75;;;;;;;24.57;54.93;98873.72;5006787;28;20482;-66
2022/03/07 11:01:00;;;;;;;18.40;4.00;;;;;;;24.66;55.27;98864.19;5002070;28;20054;-69
2022/03/07 11:03:44;;;;;;;10.13;4.70;;;;;;;24.55;55.24;98867.72;5005319;28;20137;-67
2022/03/07 11:06:33;;;;;;;12.48;3.50;;;;;;;24.49;57.33;98860.34;5007328;28;20049;-66
2022/03/07 11:09:16;;;;;;;9.88;4.10;;;;;;;24.34;58.55;98865.06;5001015;28;20057;-66
2022/03/07 11:12:11;;;;;;;12.98;4.60;;;;;;;24.21;60.81;98866.22;5000652;28;20126;-66
2022/03/07 11:14:53;;;;;;;9.50;4.40;;;;;;;24.07;62.41;98858.63;4999520;28;20117;-67
2022/03/07 11:17:45;;;;;;;7.95;4.13;;;;;;;24.03;60.82;98871.19;4990484;28;20784;-66
2022/03/07 11:20:34;;;;;;;9.02;4.10;;;;;;;23.94;62.94;98864.91;4994150;28;20042;-69
2022/03/07 11:23:31;;;;;;;14.05;4.18;;;;;;;23.84;63.00;98863.97;5007930;28;20135;-67
2022/03/07 11:26:26;;;;;;;13.20;4.13;;;;;;;23.74;60.72;98863.03;5004540;28;20052;-66
2022/03/07 11:29:02;;;;;;;11.05;4.00;;;;;;;23.74;63.27;98859.56;5007748;28;20050;-66
2022/03/07 11:32:02;;;;;;;12.77;4.40;;;;;;;23.68;62.41;98860.06;5005404;28;20046;-65
2022/03/07 11:35:05;;;;;;;13.02;4.68;;;;;;;23.71;61.57;98862.44;5001363;28;20060;-67
2022/03/07 11:37:47;;;;;;;12.65;4.57;;;;;;;23.68;62.62;98865.34;5006163;28;20062;-67
2022/03/07 11:40:36;;;;;;;11.18;3.92;;;;;;;23.59;63.00;98865.13;5006448;28;20050;-67
2022/03/07 11:43:36;;;;;;;10.75;3.95;;;;;;;23.56;63.48;98864.50;4993720;28;20049;-67
2022/03/07 11:46:24;;;;;;;15.05;3.65;;;;;;;23.51;63.73;98866.69;4998024;28;20083;-66
2022/03/07 11:49:34;;;;;;;10.77;3.70;;;;;;;23.46;64.46;98868.81;4999248;28;20053;-67
2022/03/07 11:52:18;;;;;;;10.52;3.67;;;;;;;23.39;64.52;98867.63;4993142;28;20050;-67
2022/03/07 11:55:12;;;;;;;10.07;3.42;;;;;;;23.37;64.57;98873.03;5002404;28;20045;-67
2022/03/07 11:58:08;;;;;;;15.30;4.05;;;;;;;23.34;65.62;98872.41;5001577;28;20045;-66
2022/03/07 12:01:12;;;;;;;11.90;4.07;;;;;;;23.28;62.96;98882.47;4998222;28;20038;-67
2022/03/07 12:03:54;;;;;;;12.07;4.65;;;;;;;23.21;63.12;98878.66;4992072;28;20053;-67
2022/03/07 12:07:00;;;;;;;17.38;4.90;;;;;;;23.18;61.58;98886.78;5004117;28;20789;-66
2022/03/07 12:09:38;;;;;;;17.95;5.07;;;;;;;23.23;64.78;98879.34;5002856;28;20057;-67
2022/03/07 12:12:27;;;;;;;12.40;4.90;;;;;;;23.21;64.06;98875.19;4999688;28;20058;-67
2022/03/07 12:15:18;;;;;;;17.73;6.03;;;;;;;23.18;61.06;98886.78;5003722;28;20042;-66
2022/03/07 12:18:01;;;;;;;9.55;4.22;;;;;;;23.25;65.57;98882.69;5002212;28;20050;-67
2022/03/07 12:21:15;;;;;;;14.60;4.85;;;;;;;23.21;65.33;98881.28;5006424;28;20398;-67
2022/03/07 12:24:06;;;;;;;9.73;4.35;;;;;;;23.25;66.33;98882.69;5004566;28;20128;-64
2022/03/07 12:26:56;;;;;;;12.98;5.20;;;;;;;23.26;66.88;98888.78;5003055;28;20058;-66
2022/03/07 12:29:39;;;;;;;18.88;5.03;;;;;;;23.14;63.82;98890.63;5000638;28;20046;-67
2022/03/07 12:32:33;;;;;;;20.67;6.80;;;;;;;23.09;62.61;98886.66;5001053;28;20244;-66
2022/03/07 12:35:09;;;;;;;12.60;4.50;;;;;;;23.17;67.11;98882.47;5003194;28;20061;-67
2022/03/07 12:38:03;;;;;;;10.52;4.22;;;;;;;23.15;67.41;98880.91;5003038;28;20072;-66
2022/03/07 12:40:39;;;;;;;19.63;5.22;;;;;;;23.08;61.88;98888.44;4987647;28;20046;-66
2022/03/07 12:43:38;;;;;;;16.13;5.20;;;;;;;23.07;63.72;98894.66;5001551;28;20086;-66
2022/03/07 12:46:13;;;;;;;16.42;4.18;;;;;;;23.10;67.90;98891.78;4998472;28;20046;-66
2022/03/07 12:49:01;;;;;;;13.55;5.05;;;;;;;23.04;67.57;98894.91;5004824;28;20769;-67
2022/03/07 12:51:54;;;;;;;17.42;4.55;;;;;;;22.98;68.17;98897.19;4990361;28;20133;-66
2022/03/07 12:54:40;;;;;;;20.98;7.38;;;;;;;22.87;66.64;98900.63;4996089;28;20048;-66
2022/03/07 12:57:42;;;;;;;15.75;5.63;;;;;;;22.81;69.35;98895.84;4993234;28;20104;-66
2022/03/07 13:00:23;;;;;;;17.90;6.07;;;;;;;22.71;69.52;98895.66;5001623;28;20049;-67